Terminal Aerodrome Forecast
Issued by NWS Jackson, KY

Home | Current Version | Previous Version | Text Only | Print | Product List | Glossary On
Versions: 1 2 3 4 5 6 7 8 9 10 11 12 13
000
FTUS43 KJKL 211100
TAFLOZ
TAF
KLOZ 211139Z 2112/2212 VRB03KT P6SM FEW050 BKN250
     FM211300 23008KT P6SM VCSH BKN035
     FM211500 26011G22KT 6SM -SHRA VCTS SCT025 BKN035CB
     FM212300 29006KT P6SM FEW015 SCT030 SCT250
     FM220800 31003KT P6SM OVC015=

USA.gov is the U.S. government's official web portal to all federal, state and local government web resources and services.